La Fayette, Georgia
Current Conditions -  °F | °C
As of 3:53 AM on Monday 24 Nov 2014 (Local Time) from KCHA Reporting Station
Overcast Overcast  
Wind Chill: 62°   Ceiling: 3500
Heat Index: 62°   Visibility: 10mi
Dew Point: 56°   Wind: 9mph
Humidity: 80%   Direction: 180°S
Pressure: 29.66"   Gusts: 21mph
Location:  34.71°N, 85.28°W
Report Text: KCHA 240853Z 18008G18KT 10SM OVC035 17/13 A2966 RMK AO2 SLP040 T01670133 51005
Loading
Personal Weather Stations






























Interactive Weather Map New forecast layout! Learn more

10-Day Weather Forecast

Advertisements
Track Severe Weather on mobile